createdAt,value
2023-04-16T00:02:08.525Z,9.76
2023-04-16T00:04:52.247Z,10.06
2023-04-16T00:07:36.314Z,10.26
2023-04-16T00:10:20.339Z,10.74
2023-04-16T00:13:04.501Z,10.33
2023-04-16T00:15:48.900Z,10.10
2023-04-16T00:18:32.629Z,10.14
2023-04-16T00:21:16.202Z,10.32
2023-04-16T00:23:59.772Z,10.81
2023-04-16T00:26:45.266Z,10.00
2023-04-16T00:29:31.079Z,10.01
2023-04-16T00:32:14.788Z,10.12
2023-04-16T00:34:58.429Z,10.06
2023-04-16T00:37:42.135Z,10.08
2023-04-16T00:40:29.262Z,9.94
2023-04-16T00:43:22.096Z,9.69
2023-04-16T00:46:07.339Z,9.65
2023-04-16T00:48:54.190Z,9.73
2023-04-16T00:51:37.983Z,9.92
2023-04-16T00:54:22.230Z,9.86
2023-04-16T00:57:06.745Z,10.05
2023-04-16T00:59:50.479Z,9.81
2023-04-16T01:02:35.155Z,9.75
2023-04-16T01:05:21.658Z,9.79
2023-04-16T01:08:06.543Z,9.65
2023-04-16T01:10:50.060Z,9.76
2023-04-16T01:13:34.130Z,9.67
2023-04-16T01:16:17.705Z,9.79
2023-04-16T01:19:01.387Z,9.50
2023-04-16T01:21:44.978Z,9.53
2023-04-16T01:24:28.670Z,9.52
2023-04-16T01:27:12.255Z,9.53
2023-04-16T01:29:56.461Z,9.43
2023-04-16T01:32:50.738Z,9.54
2023-04-16T01:35:34.369Z,9.51
2023-04-16T01:38:17.950Z,9.74
2023-04-16T01:41:02.099Z,9.69
2023-04-16T01:43:45.875Z,9.84
2023-04-16T01:46:33.505Z,9.59
2023-04-16T01:49:19.629Z,9.81
2023-04-16T01:52:03.177Z,9.89
2023-04-16T01:54:46.853Z,9.66
2023-04-16T01:57:30.509Z,9.65
2023-04-16T02:00:14.163Z,9.52
2023-04-16T02:03:03.977Z,9.56
2023-04-16T02:05:47.985Z,9.57
2023-04-16T02:08:31.839Z,9.46
2023-04-16T02:11:16.243Z,9.30
2023-04-16T02:14:00.451Z,9.33
2023-04-16T02:16:44.725Z,9.47
2023-04-16T02:19:36.068Z,9.48
2023-04-16T02:22:19.603Z,9.49
2023-04-16T02:25:04.058Z,9.49
2023-04-16T02:27:48.266Z,9.39
2023-04-16T02:30:45.354Z,9.49
2023-04-16T02:33:32.018Z,9.58
2023-04-16T03:09:31.846Z,9.30
2023-04-16T03:12:15.550Z,9.43
2023-04-16T03:14:59.350Z,9.34
2023-04-16T03:17:43.206Z,9.29
2023-04-16T03:20:27.244Z,9.18
2023-04-16T03:23:11.022Z,9.24
2023-04-16T03:25:54.588Z,9.23
2023-04-16T03:28:38.209Z,9.10
2023-04-16T03:31:24.953Z,9.17
2023-04-16T03:34:09.056Z,9.20
2023-04-16T03:36:52.856Z,9.16
2023-04-16T03:39:36.741Z,9.27
2023-04-16T03:42:20.535Z,9.22
2023-04-16T03:45:04.495Z,9.31
2023-04-16T03:47:53.078Z,9.27
2023-04-16T03:50:39.975Z,9.21
2023-04-16T03:53:25.942Z,9.13
2023-04-16T03:56:12.093Z,9.08
2023-04-16T03:58:55.915Z,8.97
2023-04-16T04:01:39.664Z,8.92
2023-04-16T04:04:26.344Z,8.87
2023-04-16T04:07:10.139Z,8.90
2023-04-16T04:09:54.006Z,8.79
2023-04-16T04:12:38.091Z,8.87
2023-04-16T04:15:22.671Z,9.00
2023-04-16T04:18:06.700Z,8.81
2023-04-16T04:20:50.910Z,8.84
2023-04-16T04:23:37.753Z,8.91
2023-04-16T04:26:23.811Z,8.79
2023-04-16T04:29:17.143Z,8.97
2023-04-16T04:32:01.713Z,8.99
2023-04-16T04:34:47.164Z,8.81
2023-04-16T04:37:31.417Z,8.91
2023-04-16T04:40:15.768Z,9.13
2023-04-16T04:43:01.514Z,9.16
2023-04-16T04:45:46.545Z,9.25
2023-04-16T04:48:30.751Z,9.09
2023-04-16T04:51:14.698Z,9.12
2023-04-16T04:54:00.678Z,9.23
2023-04-16T04:56:47.555Z,9.16
2023-04-16T04:59:31.418Z,8.97
2023-04-16T05:02:15.733Z,9.06
2023-04-16T05:04:59.609Z,8.90
2023-04-16T05:07:45.141Z,8.75
2023-04-16T05:10:29.055Z,8.85
2023-04-16T05:13:13.205Z,8.86
2023-04-16T05:15:59.940Z,8.89
2023-04-16T05:18:44.359Z,8.86
2023-04-16T05:21:28.832Z,8.85
2023-04-16T05:24:15.848Z,8.65
2023-04-16T05:27:00.056Z,8.71
2023-04-16T05:29:47.646Z,8.70
2023-04-16T05:32:31.855Z,8.77
2023-04-16T05:35:17.584Z,8.61
2023-04-16T05:38:01.904Z,8.57
2023-04-16T05:40:46.479Z,8.77
2023-04-16T05:43:33.490Z,8.70
2023-04-16T05:46:20.287Z,8.74
2023-04-16T05:49:04.527Z,8.60
2023-04-16T05:51:51.464Z,8.89
2023-04-16T05:54:38.096Z,8.81
2023-04-16T05:57:22.523Z,8.85
2023-04-16T06:00:10.622Z,9.03
2023-04-16T06:03:03.130Z,9.10
2023-04-16T06:05:47.117Z,9.05
2023-04-16T06:08:31.087Z,8.98
2023-04-16T06:11:15.307Z,9.27
2023-04-16T06:13:59.170Z,9.36
2023-04-16T06:16:43.126Z,8.95
2023-04-16T06:19:26.783Z,9.14
2023-04-16T06:22:11.242Z,9.25
2023-04-16T06:24:55.020Z,8.83
2023-04-16T06:27:38.966Z,8.94
2023-04-16T06:30:25.409Z,8.93
2023-04-16T06:33:09.635Z,8.79
2023-04-16T06:35:53.425Z,9.03
2023-04-16T06:38:38.073Z,8.82
2023-04-16T06:41:23.034Z,8.99
2023-04-16T06:44:07.371Z,8.86
2023-04-16T06:46:51.788Z,9.05
2023-04-16T06:49:41.804Z,8.91
2023-04-16T06:52:25.879Z,8.84
2023-04-16T06:55:10.663Z,8.97
2023-04-16T06:57:54.538Z,8.99
2023-04-16T07:00:38.354Z,9.44
2023-04-16T07:03:22.436Z,9.28
2023-04-16T07:06:06.376Z,9.32
2023-04-16T07:08:50.159Z,9.69
2023-04-16T07:11:34.495Z,9.61
2023-04-16T07:14:18.243Z,9.21
2023-04-16T07:17:04.329Z,9.42
2023-04-16T07:19:48.031Z,9.31
2023-04-16T07:22:31.697Z,9.06
2023-04-16T07:25:15.493Z,9.14
2023-04-16T07:27:59.073Z,9.26
2023-04-16T07:30:42.925Z,9.17
2023-04-16T07:33:26.784Z,9.24
2023-04-16T07:36:11.163Z,9.47
2023-04-16T07:38:54.803Z,9.65
2023-04-16T07:41:40.032Z,9.27
2023-04-16T07:44:23.632Z,9.18
2023-04-16T07:47:07.198Z,9.12
2023-04-16T07:49:50.848Z,9.27
2023-04-16T07:52:34.419Z,9.21
2023-04-16T07:55:18.076Z,9.29
2023-04-16T07:58:02.899Z,9.27
2023-04-16T08:00:46.537Z,9.12
2023-04-16T08:03:30.247Z,9.30
2023-04-16T08:06:13.912Z,9.37
2023-04-16T08:08:57.431Z,9.42
2023-04-16T08:11:41.026Z,9.32
2023-04-16T08:14:24.599Z,9.48
2023-04-16T08:17:08.210Z,9.17
2023-04-16T08:19:51.970Z,9.45
2023-04-16T08:22:35.865Z,9.30
2023-04-16T08:25:20.711Z,9.60
2023-04-16T08:28:04.783Z,9.33
2023-04-16T08:30:48.401Z,9.33
2023-04-16T08:33:32.179Z,9.34
2023-04-16T08:36:15.851Z,9.46
2023-04-16T08:38:59.493Z,9.25
2023-04-16T08:41:46.319Z,9.26
2023-04-16T08:44:37.841Z,9.36
2023-04-16T08:47:27.477Z,9.26
2023-04-16T08:50:12.269Z,9.36
2023-04-16T08:53:08.193Z,9.56
2023-04-16T08:55:54.706Z,9.25
2023-04-16T08:58:41.316Z,9.20
2023-04-16T09:01:27.020Z,9.18
2023-04-16T09:04:11.562Z,9.04
2023-04-16T09:06:59.580Z,9.57
2023-04-16T09:09:45.405Z,9.40
2023-04-16T09:12:31.528Z,9.37
2023-04-16T09:15:16.963Z,9.24
2023-04-16T09:18:01.788Z,9.21
2023-04-16T09:20:46.965Z,9.42
2023-04-16T09:23:31.383Z,9.26
2023-04-16T09:26:15.036Z,9.37
2023-04-16T09:28:58.728Z,9.31
2023-04-16T09:32:01.507Z,9.35
2023-04-16T09:35:03.936Z,9.49
2023-04-16T09:37:58.323Z,9.48
2023-04-16T09:40:41.997Z,9.73
2023-04-16T09:43:27.503Z,9.80
2023-04-16T09:46:13.007Z,9.63
2023-04-16T09:48:56.584Z,9.78
2023-04-16T09:51:51.178Z,9.90
2023-04-16T09:54:34.741Z,9.70
2023-04-16T09:57:25.693Z,9.99
2023-04-16T10:00:11.414Z,9.72
2023-04-16T10:03:07.801Z,9.91
2023-04-16T10:05:54.040Z,9.85
2023-04-16T10:08:37.729Z,9.83
2023-04-16T10:11:21.973Z,9.96
2023-04-16T10:14:05.586Z,10.50
2023-04-16T10:16:49.535Z,10.21
2023-04-16T10:19:34.249Z,10.09
2023-04-16T10:22:17.855Z,10.29
2023-04-16T10:25:02.158Z,10.30
2023-04-16T10:27:46.674Z,10.31
2023-04-16T10:30:31.279Z,10.51
2023-04-16T10:33:19.212Z,10.90
2023-04-16T10:36:15.644Z,10.53
2023-04-16T10:39:00.920Z,10.31
2023-04-16T10:41:45.789Z,10.31
2023-04-16T10:44:32.129Z,10.09
2023-04-16T10:47:18.606Z,10.26
2023-04-16T10:50:02.186Z,10.06
2023-04-16T10:52:46.258Z,9.69
2023-04-16T10:55:30.028Z,10.08
2023-04-16T10:58:36.649Z,9.91
2023-04-16T11:01:31.966Z,10.11
2023-04-16T11:04:25.339Z,10.21
2023-04-16T11:07:14.135Z,10.18
2023-04-16T11:10:00.284Z,10.14
2023-04-16T11:12:48.607Z,10.32
2023-04-16T11:15:33.817Z,10.50
2023-04-16T11:18:20.349Z,10.78
2023-04-16T11:21:09.392Z,10.73
2023-04-16T11:23:53.911Z,10.59
2023-04-16T11:26:37.462Z,10.14
2023-04-16T11:29:21.128Z,10.40
2023-04-16T11:32:04.958Z,10.45
2023-04-16T11:34:48.568Z,10.35
2023-04-16T11:37:35.553Z,10.36
2023-04-16T11:40:19.254Z,10.32
2023-04-16T11:43:15.995Z,10.37
2023-04-16T11:46:07.453Z,10.20
2023-04-16T11:48:56.852Z,10.33
2023-04-16T11:51:49.894Z,10.61
2023-04-16T11:54:36.766Z,10.52
2023-04-16T11:57:31.175Z,10.81
2023-04-16T12:00:15.943Z,10.79
2023-04-16T12:02:59.609Z,10.67
2023-04-16T12:05:43.348Z,11.00
2023-04-16T12:08:31.089Z,10.84
2023-04-16T12:11:14.628Z,11.25
2023-04-16T12:14:11.725Z,10.91
2023-04-16T12:16:56.406Z,11.04
2023-04-16T12:19:53.158Z,11.17
2023-04-16T12:22:46.070Z,11.24
2023-04-16T12:25:29.919Z,11.66
2023-04-16T12:28:13.968Z,11.22
2023-04-16T12:30:57.804Z,11.09
2023-04-16T12:33:43.997Z,10.90
2023-04-16T12:36:27.709Z,10.52
2023-04-16T12:39:12.573Z,10.56
2023-04-16T12:41:56.328Z,10.30
2023-04-16T12:44:39.973Z,10.48
2023-04-16T12:47:23.674Z,10.28
2023-04-16T12:50:08.160Z,10.17
2023-04-16T12:52:51.837Z,10.15
2023-04-16T12:55:35.739Z,10.13
2023-04-16T12:58:19.346Z,10.08
2023-04-16T13:01:02.970Z,10.16
2023-04-16T13:03:47.435Z,10.12
2023-04-16T13:06:33.895Z,10.20
2023-04-16T13:09:18.333Z,10.18
2023-04-16T13:12:01.942Z,10.15
2023-04-16T13:14:45.699Z,10.19
2023-04-16T13:17:29.264Z,10.31
2023-04-16T13:20:12.933Z,10.12
2023-04-16T13:22:56.858Z,9.80
2023-04-16T13:25:40.607Z,9.74
2023-04-16T13:28:24.167Z,9.74
2023-04-16T13:31:08.114Z,9.83
2023-04-16T13:33:51.978Z,9.82
2023-04-16T13:36:35.712Z,9.88
2023-04-16T13:39:19.700Z,9.91
2023-04-16T13:42:03.362Z,9.70
2023-04-16T13:44:49.029Z,9.77
2023-04-16T13:47:32.663Z,9.88
2023-04-16T13:50:16.332Z,9.99
2023-04-16T13:52:59.804Z,10.07
2023-04-16T13:55:43.734Z,9.98
2023-04-16T13:58:27.346Z,9.95
2023-04-16T14:01:12.882Z,10.23
2023-04-16T14:03:59.795Z,10.01
2023-04-16T14:06:43.597Z,10.43
2023-04-16T14:09:27.438Z,9.98
2023-04-16T14:12:13.495Z,10.39
2023-04-16T14:14:57.158Z,10.43
2023-04-16T14:17:43.412Z,9.92
2023-04-16T14:20:26.962Z,10.16
2023-04-16T14:23:12.497Z,10.33
2023-04-16T14:25:57.110Z,10.42
2023-04-16T14:28:42.006Z,10.54
2023-04-16T14:31:25.929Z,10.82
2023-04-16T14:34:11.008Z,10.34
2023-04-16T14:37:03.531Z,10.56
2023-04-16T14:39:47.741Z,10.32
2023-04-16T14:42:33.374Z,10.10
2023-04-16T14:45:21.173Z,10.24
2023-04-16T14:48:06.931Z,10.34
2023-04-16T14:50:50.840Z,10.50
2023-04-16T14:53:36.252Z,10.33
2023-04-16T14:56:19.805Z,10.48
2023-04-16T14:59:03.540Z,10.74
2023-04-16T15:01:47.334Z,10.27
2023-04-16T15:04:31.530Z,10.46
2023-04-16T15:07:15.919Z,10.34
2023-04-16T15:09:59.556Z,10.12
2023-04-16T15:12:43.130Z,9.92
2023-04-16T15:15:26.692Z,9.96
2023-04-16T15:18:10.718Z,9.77
2023-04-16T15:20:54.723Z,9.78
2023-04-16T15:23:38.242Z,9.88
2023-04-16T15:26:23.473Z,9.67
2023-04-16T15:29:08.534Z,9.62
2023-04-16T15:31:52.053Z,9.64
2023-04-16T15:34:36.085Z,9.52
2023-04-16T15:37:19.757Z,9.65
2023-04-16T15:40:05.739Z,9.65
2023-04-16T15:42:49.566Z,9.84
2023-04-16T15:45:33.436Z,9.81
2023-04-16T15:48:17.077Z,10.03
2023-04-16T15:51:01.037Z,9.76
2023-04-16T15:53:45.440Z,9.73
2023-04-16T15:56:29.076Z,9.70
2023-04-16T15:59:13.146Z,9.76
2023-04-16T16:01:57.550Z,9.61
2023-04-16T16:04:46.304Z,9.69
2023-04-16T16:07:30.006Z,9.65
2023-04-16T16:10:13.841Z,9.58
2023-04-16T16:12:57.774Z,9.59
2023-04-16T16:15:41.624Z,9.63
2023-04-16T16:18:25.349Z,9.53
2023-04-16T16:21:08.912Z,9.48
2023-04-16T16:23:52.463Z,9.70
2023-04-16T16:26:36.174Z,9.80
2023-04-16T16:29:19.807Z,9.75
2023-04-16T16:32:03.483Z,9.76
2023-04-16T16:34:47.052Z,9.66
2023-04-16T16:37:30.569Z,9.73
2023-04-16T16:40:14.125Z,9.89
2023-04-16T16:42:57.715Z,10.32
2023-04-16T16:45:41.526Z,10.06
2023-04-16T16:48:25.089Z,9.96
2023-04-16T16:51:11.789Z,9.75
2023-04-16T16:53:55.479Z,9.60
2023-04-16T16:56:39.057Z,9.71
2023-04-16T16:59:22.876Z,9.66
2023-04-16T17:02:07.415Z,9.83
2023-04-16T17:04:52.012Z,9.96
2023-04-16T17:07:36.332Z,9.82
2023-04-16T17:10:22.653Z,9.76
2023-04-16T17:13:06.242Z,10.28
2023-04-16T17:15:49.733Z,10.08
2023-04-16T17:18:34.474Z,9.62
2023-04-16T17:21:18.131Z,9.58
2023-04-16T17:24:01.741Z,9.53
2023-04-16T17:26:45.489Z,9.37
2023-04-16T17:29:30.573Z,9.25
2023-04-16T17:32:14.240Z,9.38
2023-04-16T17:34:59.960Z,9.45
2023-04-16T17:37:43.509Z,9.39
2023-04-16T17:40:27.072Z,9.57
2023-04-16T17:43:10.736Z,9.46
2023-04-16T17:45:54.350Z,9.20
2023-04-16T17:48:38.350Z,9.21
2023-04-16T17:51:22.135Z,9.28
2023-04-16T17:54:07.399Z,9.30
2023-04-16T17:56:51.262Z,9.46
2023-04-16T17:59:34.866Z,9.33
2023-04-16T18:02:18.898Z,9.18
2023-04-16T18:05:02.482Z,9.09
2023-04-16T18:07:47.238Z,9.06
2023-04-16T18:10:32.862Z,8.94
2023-04-16T18:13:16.475Z,9.13
2023-04-16T18:16:00.080Z,9.06
2023-04-16T18:18:45.006Z,9.02
2023-04-16T18:21:29.927Z,8.81
2023-04-16T18:24:13.975Z,8.84
2023-04-16T18:26:57.669Z,8.86
2023-04-16T18:29:43.830Z,8.91
2023-04-16T18:32:31.314Z,9.02
2023-04-16T18:35:15.056Z,8.90
2023-04-16T18:37:58.718Z,9.18
2023-04-16T18:40:42.368Z,9.00
2023-04-16T18:43:26.496Z,8.97
2023-04-16T18:46:10.309Z,8.97
2023-04-16T18:48:54.182Z,9.02
2023-04-16T18:51:37.861Z,8.67
2023-04-16T18:54:22.102Z,8.79
2023-04-16T18:57:05.712Z,8.58
2023-04-16T18:59:49.316Z,8.73
2023-04-16T19:02:33.134Z,8.67
2023-04-16T19:05:16.833Z,8.60
2023-04-16T19:08:00.495Z,8.75
2023-04-16T19:10:46.358Z,8.61
2023-04-16T19:13:30.685Z,8.80
2023-04-16T19:16:14.213Z,8.59
2023-04-16T19:18:57.952Z,8.58
2023-04-16T19:21:41.486Z,8.61
2023-04-16T19:24:25.090Z,8.52
2023-04-16T19:27:08.588Z,8.56
2023-04-16T19:29:52.200Z,8.62
2023-04-16T19:32:35.992Z,8.61
2023-04-16T19:35:19.564Z,8.63
2023-04-16T19:38:03.979Z,8.58
2023-04-16T19:40:49.036Z,8.63
2023-04-16T19:43:33.152Z,8.50
2023-04-16T19:46:16.886Z,8.69
2023-04-16T19:49:00.460Z,8.48
2023-04-16T19:51:43.997Z,8.51
2023-04-16T19:54:27.559Z,8.39
2023-04-16T19:57:11.146Z,8.44
2023-04-16T19:59:55.220Z,8.59
2023-04-16T20:02:38.981Z,8.35
2023-04-16T20:05:22.577Z,8.49
2023-04-16T20:08:06.455Z,8.53
2023-04-16T20:10:50.038Z,8.52
2023-04-16T20:13:33.729Z,8.35
2023-04-16T20:16:17.578Z,8.36
2023-04-16T20:19:04.689Z,8.32
2023-04-16T20:21:49.978Z,8.35
2023-04-16T20:24:34.420Z,8.40
2023-04-16T20:27:19.547Z,8.21
2023-04-16T20:30:04.250Z,8.54
2023-04-16T20:32:47.768Z,8.24
2023-04-16T20:35:31.385Z,8.22
2023-04-16T20:38:15.007Z,8.20
2023-04-16T20:41:11.138Z,8.18
2023-04-16T20:43:54.700Z,8.18
2023-04-16T20:46:38.899Z,8.12
2023-04-16T20:49:22.461Z,8.10
2023-04-16T20:52:07.472Z,8.12
2023-04-16T20:54:52.456Z,8.15
2023-04-16T20:57:36.175Z,8.08
2023-04-16T21:00:20.126Z,8.05
2023-04-16T21:03:07.023Z,8.10
2023-04-16T21:05:51.760Z,8.10
2023-04-16T21:08:35.675Z,7.96
2023-04-16T21:11:19.279Z,7.97
2023-04-16T21:14:04.723Z,7.79
2023-04-16T21:16:48.295Z,7.92
2023-04-16T21:19:31.812Z,7.85
2023-04-16T21:22:15.529Z,7.87
2023-04-16T21:24:59.095Z,7.82
2023-04-16T21:27:42.736Z,7.90
2023-04-16T21:30:26.260Z,7.80
2023-04-16T21:33:11.974Z,7.83
2023-04-16T21:35:55.831Z,7.81
2023-04-16T21:38:39.410Z,7.75
2023-04-16T21:41:23.017Z,7.67
2023-04-16T21:44:06.574Z,7.74
2023-04-16T21:46:50.187Z,7.66
2023-04-16T21:49:33.812Z,7.73
2023-04-16T21:52:19.999Z,7.62
2023-04-16T21:55:04.114Z,7.68
2023-04-16T21:57:47.612Z,7.69
2023-04-16T22:00:31.236Z,7.74
2023-04-16T22:03:17.624Z,7.66
2023-04-16T22:06:01.677Z,7.54
2023-04-16T22:08:45.621Z,7.55
2023-04-16T22:11:29.262Z,7.52
2023-04-16T22:14:14.742Z,7.54
2023-04-16T22:16:58.893Z,7.51
2023-04-16T22:19:43.424Z,7.55
2023-04-16T22:22:27.151Z,7.51
2023-04-16T22:25:12.004Z,7.59
2023-04-16T22:27:55.666Z,7.40
2023-04-16T22:30:39.226Z,7.50
2023-04-16T22:33:22.744Z,7.46
2023-04-16T22:36:06.933Z,7.45
2023-04-16T22:38:50.539Z,7.40
2023-04-16T22:41:36.080Z,7.46
2023-04-16T22:44:19.644Z,7.46
2023-04-16T22:47:03.314Z,7.35
2023-04-16T22:49:47.802Z,7.34
2023-04-16T22:52:31.381Z,7.33
2023-04-16T22:55:14.872Z,7.46
2023-04-16T22:57:58.402Z,7.47
2023-04-16T23:00:42.000Z,7.41
2023-04-16T23:03:26.303Z,7.45
2023-04-16T23:06:09.877Z,7.37
2023-04-16T23:08:54.030Z,7.28
2023-04-16T23:11:37.829Z,7.34
2023-04-16T23:14:21.444Z,7.52
2023-04-16T23:17:05.182Z,7.47
2023-04-16T23:19:48.698Z,7.36
2023-04-16T23:22:32.414Z,7.44
2023-04-16T23:25:16.173Z,7.42
2023-04-16T23:27:59.831Z,7.48
2023-04-16T23:30:43.369Z,7.42
2023-04-16T23:33:27.349Z,7.29
2023-04-16T23:36:10.934Z,7.22
2023-04-16T23:38:54.505Z,7.34
2023-04-16T23:41:38.040Z,7.21
2023-04-16T23:44:21.670Z,7.25
2023-04-16T23:47:05.549Z,7.28
2023-04-16T23:49:49.198Z,7.14
2023-04-16T23:52:32.743Z,7.15
2023-04-16T23:55:16.500Z,7.28
2023-04-16T23:58:00.357Z,7.15
